Sunlight — WDB4636 — position and weather

sailwx.info

Track history (hours):
 
Tides and Currents Weather Stations Pressure Air Temp Water Temp Dewpoint Dewpoint Depression Visibility Wind Speed Wind Dir Waves Ship Positions

Sunlight

Owner: O'Hara Corporation, Rockland, ME. More information available from US FCC via Universal Licensing System and Coast Guard Vessel Documentation Center.

Last reported at 2017-Sep-24 02:14 UTC. Time now 2017-Sep-24 05:16 UTC.
Position N 43°12' W 068°12'.

MMSI: 366900670.

Date/timePositionNaut miles runAvg speedWind from/ knotsBaromVisibWave heightAir tempDewpointWater temp
2017-Sep-24 02:14N 43°12' W 068°12'2 7.8
2017-Sep-24 01:57N 43°13' W 068°14'4 7.9
2017-Sep-24 01:29N 43°16' W 068°17'4 8.1
2017-Sep-24 01:00N 43°20' W 068°20'7 8.4
2017-Sep-24 00:13N 43°25' W 068°24'4 8.6
2017-Sep-23 23:44N 43°29' W 068°27'2 8.4
2017-Sep-23 23:30N 43°30' W 068°29'4 8.5
2017-Sep-23 23:00N 43°34' W 068°32'5 8.5
2017-Sep-23 22:22N 43°38' W 068°37'3 8.2
2017-Sep-23 22:00N 43°41' W 068°38'5 9.0
2017-Sep-23 21:29N 43°45' W 068°42'8 8.4
2017-Sep-23 20:35N 43°51' W 068°47'1 9.4
2017-Sep-23 20:30N 43°52' W 068°48'5 9.4
2017-Sep-23 19:59N 43°56' W 068°52'15 0.4
2017-Sep-22 01:57N 44°07' W 069°06'0 0.0
2017-Sep-22 01:22N 44°07' W 069°06'0 0.0
2017-Sep-22 00:59N 44°07' W 069°06'0 0.0
2017-Sep-21 23:49N 44°07' W 069°06'0 0.0
2017-Sep-21 23:21N 44°07' W 069°06'0 0.0
2017-Sep-21 22:59N 44°07' W 069°06'0 0.0
2017-Sep-21 22:30N 44°07' W 069°06'0 0.0
2017-Sep-21 21:57N 44°07' W 069°06'0 0.0
2017-Sep-21 21:28N 44°07' W 069°06'0 0.0
2017-Sep-21 20:58N 44°07' W 069°06'0 0.0
2017-Sep-21 20:19N 44°07' W 069°06'0 0.0
2017-Sep-21 19:36N 44°07' W 069°06'0 0.0
2017-Sep-21 19:30N 44°07' W 069°06'0 0.0
2017-Sep-21 18:50N 44°07' W 069°06'0 0.0
2017-Sep-21 18:27N 44°07' W 069°06'0 0.0
2017-Sep-21 17:57N 44°07' W 069°06'0 0.0
2017-Sep-21 17:25N 44°07' W 069°06'0 0.0
2017-Sep-21 16:59N 44°07' W 069°06'0 0.0
2017-Sep-21 16:23N 44°07' W 069°06'0 0.0
2017-Sep-21 15:58N 44°07' W 069°06'0 0.0
2017-Sep-21 15:27N 44°07' W 069°06'0 0.0
2017-Sep-21 14:45N 44°07' W 069°06'0 0.0
2017-Sep-21 14:06N 44°07' W 069°06'0 0.0
2017-Sep-21 13:56N 44°07' W 069°06'0 0.0
2017-Sep-21 13:25N 44°07' W 069°06'0 0.0
2017-Sep-21 12:57N 44°07' W 069°06'0 0.0
2017-Sep-21 12:30N 44°07' W 069°06'0 0.0
2017-Sep-21 11:59N 44°07' W 069°06'0 0.0
2017-Sep-21 11:27N 44°07' W 069°06'0 0.0
2017-Sep-21 10:36N 44°07' W 069°06'0 0.0
2017-Sep-21 10:28N 44°07' W 069°06'0 0.0
2017-Sep-21 09:55N 44°07' W 069°06'0 0.0
2017-Sep-21 09:27N 44°07' W 069°06'0 0.0
2017-Sep-21 08:58N 44°07' W 069°06'0 0.0
2017-Sep-21 08:30N 44°07' W 069°06'0 0.0
2017-Sep-21 07:58N 44°07' W 069°06'0 0.0
2017-Sep-21 07:27N 44°07' W 069°06'0 0.0
2017-Sep-21 06:40N 44°07' W 069°06'0 0.0
2017-Sep-21 06:23N 44°07' W 069°06'0 0.0
2017-Sep-21 05:59N 44°07' W 069°06'0 0.0
2017-Sep-21 05:30N 44°07' W 069°06'0 0.0
2017-Sep-21 04:51N 44°07' W 069°06'0 0.0
2017-Sep-21 04:28N 44°07' W 069°06'0 0.0
2017-Sep-21 03:58N 44°07' W 069°06'0 0.0
2017-Sep-21 03:29N 44°07' W 069°06'0 0.0
2017-Sep-21 02:53N 44°07' W 069°06'0 0.0
2017-Sep-21 02:29N 44°07' W 069°06'0 0.0
2017-Sep-21 02:00N 44°07' W 069°06'0 0.0
2017-Sep-21 01:20N 44°07' W 069°06'0 0.0
2017-Sep-21 00:30N 44°07' W 069°06'0 0.0
2017-Sep-20 23:56N 44°07' W 069°06'0 0.0
2017-Sep-20 22:53N 44°07' W 069°06'0 0.0
2017-Sep-20 21:39N 44°07' W 069°06'0 0.0
2017-Sep-20 21:27N 44°07' W 069°06'0 0.0
2017-Sep-20 20:59N 44°07' W 069°06'0 0.0
2017-Sep-20 20:27N 44°07' W 069°06'0 0.0
2017-Sep-20 19:45N 44°07' W 069°06'0 0.0
2017-Sep-20 19:27N 44°07' W 069°06'0 0.0
2017-Sep-20 18:57N 44°07' W 069°06'0 0.0
2017-Sep-20 18:30N 44°07' W 069°06'0 0.0
2017-Sep-20 17:48N 44°07' W 069°06'0 0.0
2017-Sep-20 17:30N 44°07' W 069°06'0 0.0
2017-Sep-20 16:53N 44°07' W 069°06'0 0.0
2017-Sep-20 16:26N 44°07' W 069°06'0 0.0
2017-Sep-20 15:55N 44°07' W 069°06'0 0.0
2017-Sep-20 15:28N 44°07' W 069°06'0 0.0
2017-Sep-20 14:53N 44°07' W 069°06'0 0.0
2017-Sep-20 14:00N 44°07' W 069°06'0 0.0
2017-Sep-20 12:48N 44°07' W 069°06'0 0.0
2017-Sep-20 12:26N 44°07' W 069°06'0 0.0
2017-Sep-20 11:58N 44°07' W 069°06'0 0.0
2017-Sep-20 11:28N 44°07' W 069°06'0 0.0
2017-Sep-20 10:56N 44°07' W 069°06'0 0.0
2017-Sep-20 10:25N 44°07' W 069°06'0 0.0
2017-Sep-20 10:00N 44°07' W 069°06'0 0.0
2017-Sep-20 09:26N 44°07' W 069°06'0 0.0
2017-Sep-20 08:58N 44°07' W 069°06'0 0.0
2017-Sep-20 08:28N 44°07' W 069°06'0 0.0
2017-Sep-20 08:00N 44°07' W 069°06'0 0.0
2017-Sep-20 06:42N 44°07' W 069°06'0 0.0
2017-Sep-20 05:51N 44°07' W 069°06'0 0.0
2017-Sep-20 05:26N 44°07' W 069°06'0 0.0
2017-Sep-20 04:45N 44°07' W 069°06'0 0.0
2017-Sep-20 04:30N 44°07' W 069°06'0 0.0
2017-Sep-20 03:56N 44°07' W 069°06'0 0.0
2017-Sep-20 03:29N 44°07' W 069°06'0 0.0
2017-Sep-20 03:00N 44°07' W 069°06'0 0.0
2017-Sep-20 02:28N 44°07' W 069°06'0 0.0
2017-Sep-20 01:57N 44°07' W 069°06'0 0.0
2017-Sep-20 01:30N 44°07' W 069°06'0 0.0
2017-Sep-20 00:56N 44°07' W 069°06'0 0.0
2017-Sep-20 00:21N 44°07' W 069°06'0 0.0
2017-Sep-19 23:47N 44°07' W 069°06'0 0.0
2017-Sep-19 23:30N 44°07' W 069°06'0 0.0
2017-Sep-19 22:56N 44°07' W 069°06'0 0.0
2017-Sep-19 22:28N 44°07' W 069°06'0 0.0
2017-Sep-19 21:21N 44°07' W 069°06'0 0.0
2017-Sep-19 21:00N 44°07' W 069°06'0 0.0
2017-Sep-19 20:26N 44°07' W 069°06'0 0.0
2017-Sep-19 19:55N 44°07' W 069°06'0 0.0
2017-Sep-19 19:24N 44°07' W 069°06'0 0.0
2017-Sep-19 18:59N 44°07' W 069°06'0 0.0
2017-Sep-19 18:28N 44°07' W 069°06'0 0.0
2017-Sep-19 17:59N 44°07' W 069°06'0 0.0
2017-Sep-19 17:16N 44°07' W 069°06'0 0.0
2017-Sep-19 16:57N 44°07' W 069°06'0 0.0
2017-Sep-19 16:30N 44°07' W 069°06'0 0.0
2017-Sep-19 15:56N 44°07' W 069°06'0 0.0
2017-Sep-19 15:29N 44°07' W 069°06'0 0.0
2017-Sep-19 14:58N 44°07' W 069°06'0 0.0
2017-Sep-19 14:26N 44°07' W 069°06'0 0.0
2017-Sep-19 14:00N 44°07' W 069°06'0 0.0
2017-Sep-19 13:25N 44°07' W 069°06'0 0.0
2017-Sep-19 13:00N 44°07' W 069°06'0 0.0
2017-Sep-19 12:29N 44°07' W 069°06'0 0.0
2017-Sep-19 11:58N 44°07' W 069°06'0 0.0
2017-Sep-19 11:21N 44°07' W 069°06'0 0.0
2017-Sep-19 10:54N 44°07' W 069°06'0 0.0
2017-Sep-19 10:29N 44°07' W 069°06'0 0.0
2017-Sep-19 09:44N 44°07' W 069°06'0 0.0
2017-Sep-19 09:28N 44°07' W 069°06'0 0.0
2017-Sep-19 08:59N 44°07' W 069°06'0 0.0
2017-Sep-19 08:29N 44°07' W 069°06'0 0.0
2017-Sep-19 07:59N 44°07' W 069°06'0 0.0
2017-Sep-19 07:26N 44°07' W 069°06'0 0.0
2017-Sep-19 06:59N 44°07' W 069°06'0 0.0
2017-Sep-19 06:29N 44°07' W 069°06'0 0.0
2017-Sep-19 05:59N 44°07' W 069°06'0 0.0
2017-Sep-19 05:30N 44°07' W 069°06'0 0.0
2017-Sep-19 04:59N 44°07' W 069°06'0 0.0
2017-Sep-19 04:30N 44°07' W 069°06'0 0.0
2017-Sep-19 03:42N 44°07' W 069°06'0 0.0
2017-Sep-19 03:15N 44°07' W 069°06'0 0.0
2017-Sep-19 02:57N 44°07' W 069°06'0 0.0
2017-Sep-19 02:26N 44°07' W 069°06'0 0.0
2017-Sep-19 01:57N 44°07' W 069°06'0 0.0
2017-Sep-19 01:12N 44°07' W 069°06'0 0.0
2017-Sep-19 00:59N 44°07' W 069°06'0 0.0
2017-Sep-19 00:29N 44°07' W 069°06'0 0.0
2017-Sep-18 23:54N 44°07' W 069°06'0 0.0
2017-Sep-18 23:26N 44°07' W 069°06'0 0.0
2017-Sep-18 22:59N 44°07' W 069°06'0 0.0
2017-Sep-18 22:14N 44°07' W 069°06'0 0.0
2017-Sep-18 21:55N 44°07' W 069°06'0 0.0
2017-Sep-18 21:29N 44°07' W 069°06'0 0.0
2017-Sep-18 20:52N 44°07' W 069°06'0 0.0
2017-Sep-18 20:27N 44°07' W 069°06'0 0.0
2017-Sep-18 19:56N 44°07' W 069°06'0 0.0
2017-Sep-18 19:30N 44°07' W 069°06'0 0.0
2017-Sep-18 18:55N 44°07' W 069°06'0 0.0
2017-Sep-18 18:18N 44°07' W 069°06'0 0.0
2017-Sep-18 17:57N 44°07' W 069°06'0 0.0
2017-Sep-18 17:27N 44°07' W 069°06'0 0.0
2017-Sep-18 17:00N 44°07' W 069°06'0 0.0
2017-Sep-18 16:27N 44°07' W 069°06'0 0.0
2017-Sep-18 15:59N 44°07' W 069°06'0 0.0
2017-Sep-18 15:27N 44°07' W 069°06'0 0.0
2017-Sep-18 15:00N 44°07' W 069°06'0 0.0
2017-Sep-18 14:27N 44°07' W 069°06'0 0.0
2017-Sep-18 13:58N 44°07' W 069°06'0 0.0
2017-Sep-18 13:16N 44°07' W 069°06'0 0.0
2017-Sep-18 12:59N 44°07' W 069°06'0 0.0
2017-Sep-18 12:27N 44°07' W 069°06'0 0.0
2017-Sep-18 11:51N 44°07' W 069°06'0 0.0
2017-Sep-18 11:29N 44°07' W 069°06'1 1.1
2017-Sep-18 10:48N 44°06' W 069°05'4 8.7
2017-Sep-18 10:20N 44°04' W 069°01'310.0
2017-Sep-18 10:00N 44°01' W 069°00'610.0
2017-Sep-18 09:27N 43°55' W 068°59'3 0.1
2017-Sep-16 21:54N 43°58' W 068°59'4 8.8
2017-Sep-16 21:28N 44°02' W 069°00'4 9.5
2017-Sep-16 21:00N 44°06' W 069°02'3 5.0
2017-Sep-16 20:26N 44°07' W 069°06'0 0.0
2017-Sep-16 19:49N 44°07' W 069°06'0 0.0
2017-Sep-16 19:30N 44°07' W 069°06'0 0.0
2017-Sep-16 18:58N 44°07' W 069°06'0 0.0
2017-Sep-16 18:13N 44°07' W 069°06'0 0.0
2017-Sep-16 18:00N 44°07' W 069°06'0 0.0
2017-Sep-16 17:31N 44°07' W 069°06'0 0.0
2017-Sep-16 16:53N 44°07' W 069°06'0 0.0
2017-Sep-16 16:25N 44°07' W 069°06'0 0.0
2017-Sep-16 16:00N 44°07' W 069°06'0 0.0
2017-Sep-16 15:17N 44°07' W 069°06'0 0.0
2017-Sep-16 14:59N 44°07' W 069°06'0 0.0
2017-Sep-16 14:30N 44°07' W 069°06'0 0.0
2017-Sep-16 13:58N 44°07' W 069°06'0 0.0
2017-Sep-16 13:30N 44°07' W 069°06'0 0.0
2017-Sep-16 12:57N 44°07' W 069°06'0 0.0
2017-Sep-16 12:20N 44°07' W 069°06'0 0.0
2017-Sep-16 11:57N 44°07' W 069°06'0 0.0
2017-Sep-16 11:28N 44°07' W 069°06'0 0.0
2017-Sep-16 07:31N 44°07' W 069°06'0 0.0
2017-Sep-16 07:27N 44°07' W 069°06'0 0.0
2017-Sep-16 06:50N 44°07' W 069°06'0 0.0
2017-Sep-16 06:30N 44°07' W 069°06'0 0.0
2017-Sep-16 05:59N 44°07' W 069°06'0 0.0
2017-Sep-16 05:24N 44°07' W 069°06'0 0.0
2017-Sep-16 04:58N 44°07' W 069°06'0 0.0
2017-Sep-16 04:27N 44°07' W 069°06'0 0.0
2017-Sep-16 03:50N 44°07' W 069°06'0 0.0
2017-Sep-16 03:11N 44°07' W 069°06'0 0.0
2017-Sep-16 02:44N 44°07' W 069°06'0 0.0
2017-Sep-16 02:28N 44°07' W 069°06'0 0.0
2017-Sep-16 02:00N 44°07' W 069°06'0 0.0
2017-Sep-16 01:30N 44°07' W 069°06'0 0.0
2017-Sep-15 21:42N 44°07' W 069°06'0 0.0
2017-Sep-15 21:26N 44°07' W 069°06'0 0.0
2017-Sep-15 20:59N 44°07' W 069°06'0 0.0
2017-Sep-15 18:31N 44°07' W 069°06'0 0.0
2017-Sep-15 18:29N 44°07' W 069°06'0 0.0
2017-Sep-15 17:58N 44°07' W 069°06'0 0.0
2017-Sep-15 17:27N 44°07' W 069°06'0 0.0
2017-Sep-15 16:55N 44°07' W 069°06'0 0.0
2017-Sep-15 16:21N 44°07' W 069°06'0 0.0
2017-Sep-15 16:00N 44°07' W 069°06'0 0.0
2017-Sep-15 15:30N 44°07' W 069°06'0 0.0
2017-Sep-15 14:29N 44°07' W 069°06'0 0.0
2017-Sep-15 13:57N 44°07' W 069°06'0 0.0
2017-Sep-15 13:23N 44°07' W 069°06'0 0.0
2017-Sep-15 12:50N 44°07' W 069°06'0 0.0
2017-Sep-15 12:24N 44°07' W 069°06'0 0.0
2017-Sep-15 11:59N 44°07' W 069°06'0 0.0
2017-Sep-15 10:38N 44°07' W 069°06'0 0.0
2017-Sep-15 10:28N 44°07' W 069°06'0 0.0
2017-Sep-15 08:51N 44°07' W 069°06'0 0.0
2017-Sep-15 08:12N 44°07' W 069°06'0 0.0
2017-Sep-15 07:55N 44°07' W 069°06'0 0.0
2017-Sep-15 07:27N 44°07' W 069°06'0 0.0
2017-Sep-15 06:58N 44°07' W 069°06'0 0.0
2017-Sep-15 06:26N 44°07' W 069°06'0 0.0
2017-Sep-15 06:00N 44°07' W 069°06'0 0.0
2017-Sep-15 05:20N 44°07' W 069°06'0 0.0
2017-Sep-15 04:56N 44°07' W 069°06'0 0.0
2017-Sep-15 04:26N 44°07' W 069°06'0 0.0
2017-Sep-15 03:59N 44°07' W 069°06'0 0.0
2017-Sep-15 03:28N 44°07' W 069°06'0 0.0
2017-Sep-15 03:01N 44°07' W 069°06'0 0.0
2017-Sep-15 02:26N 44°07' W 069°06'0 0.0
2017-Sep-15 01:59N 44°07' W 069°06'0 0.0
2017-Sep-15 01:26N 44°07' W 069°06'0 0.0
2017-Sep-15 00:59N 44°07' W 069°06'0 0.0
2017-Sep-15 00:30N 44°07' W 069°06'0 0.0
2017-Sep-14 23:56N 44°07' W 069°06'0 0.0
2017-Sep-14 23:20N 44°07' W 069°06'0 0.0
2017-Sep-14 22:57N 44°07' W 069°06'0 0.0
2017-Sep-14 22:28N 44°07' W 069°06'0 0.0
2017-Sep-14 21:59N 44°07' W 069°06'0 0.0
2017-Sep-14 21:23N 44°07' W 069°06'0 0.0
2017-Sep-14 20:59N 44°07' W 069°06'0 0.0
2017-Sep-14 20:27N 44°07' W 069°06'0 0.0
2017-Sep-14 19:59N 44°07' W 069°06'0 0.0
2017-Sep-14 19:30N 44°07' W 069°06'0 0.0
2017-Sep-14 19:00N 44°07' W 069°06'0 0.0
2017-Sep-14 18:30N 44°07' W 069°06'0 0.0
2017-Sep-14 18:00N 44°07' W 069°06'0 0.0
2017-Sep-14 17:31N 44°07' W 069°06'0 0.0
2017-Sep-14 16:59N 44°07' W 069°06'0 0.0
2017-Sep-14 15:58N 44°07' W 069°06'0 0.0
2017-Sep-14 15:24N 44°07' W 069°06'0 0.0
2017-Sep-14 14:41N 44°07' W 069°06'0 0.0
2017-Sep-14 14:25N 44°07' W 069°06'0 0.0
2017-Sep-14 13:45N 44°07' W 069°06'0 0.0
2017-Sep-14 13:28N 44°07' W 069°06'0 0.0
2017-Sep-14 12:51N 44°07' W 069°06'0 0.0
2017-Sep-14 12:26N 44°07' W 069°06'0 0.0
2017-Sep-14 11:56N 44°07' W 069°06'0 0.0
2017-Sep-14 11:29N 44°07' W 069°06'0 0.0
2017-Sep-14 10:51N 44°07' W 069°06'0 0.0
2017-Sep-14 10:26N 44°07' W 069°06'0 0.0
2017-Sep-14 09:54N 44°07' W 069°06'0 0.0
2017-Sep-14 09:27N 44°07' W 069°06'0 0.0
2017-Sep-14 08:57N 44°07' W 069°06'0 0.0
2017-Sep-14 08:30N 44°07' W 069°06'0 0.0
2017-Sep-14 07:40N 44°07' W 069°06'0 0.0
2017-Sep-14 07:25N 44°07' W 069°06'0 0.0
2017-Sep-14 06:59N 44°07' W 069°06'0 0.0
2017-Sep-14 06:28N 44°07' W 069°06'0 0.0
2017-Sep-14 05:51N 44°07' W 069°06'0 0.0
2017-Sep-14 05:27N 44°07' W 069°06'0 0.0
2017-Sep-14 05:00N 44°07' W 069°06'0 0.0
2017-Sep-14 04:27N 44°07' W 069°06'0 0.0
2017-Sep-14 03:57N 44°07' W 069°06'0 0.0
2017-Sep-14 03:24N 44°07' W 069°06'0 0.0
2017-Sep-14 03:00N 44°07' W 069°06'0 0.0
2017-Sep-14 02:17N 44°07' W 069°06'  
Track history (hours):
 
Tides and Currents Weather Stations Pressure Air Temp Water Temp Dewpoint Dewpoint Depression Visibility Wind Speed Wind Dir Waves Ship Positions

Sunlight

Owner: O'Hara Corporation, Rockland, ME. More information available from US FCC via Universal Licensing System and Coast Guard Vessel Documentation Center.

Last reported at 2017-Sep-24 02:14 UTC. Time now 2017-Sep-24 05:16 UTC.
Position N 43°12' W 068°12'.

MMSI: 366900670.

Date/timePositionNaut miles runAvg speedWind from/ knotsBaromVisibWave heightAir tempDewpointWater temp
2017-Sep-24 02:14N 43°12' W 068°12'2 7.8
2017-Sep-24 01:57N 43°13' W 068°14'4 7.9
2017-Sep-24 01:29N 43°16' W 068°17'4 8.1
2017-Sep-24 01:00N 43°20' W 068°20'7 8.4
2017-Sep-24 00:13N 43°25' W 068°24'4 8.6
2017-Sep-23 23:44N 43°29' W 068°27'2 8.4
2017-Sep-23 23:30N 43°30' W 068°29'4 8.5
2017-Sep-23 23:00N 43°34' W 068°32'5 8.5
2017-Sep-23 22:22N 43°38' W 068°37'3 8.2
2017-Sep-23 22:00N 43°41' W 068°38'5 9.0
2017-Sep-23 21:29N 43°45' W 068°42'8 8.4
2017-Sep-23 20:35N 43°51' W 068°47'1 9.4
2017-Sep-23 20:30N 43°52' W 068°48'5 9.4
2017-Sep-23 19:59N 43°56' W 068°52'15 0.4
2017-Sep-22 01:57N 44°07' W 069°06'0 0.0
2017-Sep-22 01:22N 44°07' W 069°06'0 0.0
2017-Sep-22 00:59N 44°07' W 069°06'0 0.0
2017-Sep-21 23:49N 44°07' W 069°06'0 0.0
2017-Sep-21 23:21N 44°07' W 069°06'0 0.0
2017-Sep-21 22:59N 44°07' W 069°06'0 0.0
2017-Sep-21 22:30N 44°07' W 069°06'0 0.0
2017-Sep-21 21:57N 44°07' W 069°06'0 0.0
2017-Sep-21 21:28N 44°07' W 069°06'0 0.0
2017-Sep-21 20:58N 44°07' W 069°06'0 0.0
2017-Sep-21 20:19N 44°07' W 069°06'0 0.0
2017-Sep-21 19:36N 44°07' W 069°06'0 0.0
2017-Sep-21 19:30N 44°07' W 069°06'0 0.0
2017-Sep-21 18:50N 44°07' W 069°06'0 0.0
2017-Sep-21 18:27N 44°07' W 069°06'0 0.0
2017-Sep-21 17:57N 44°07' W 069°06'0 0.0
2017-Sep-21 17:25N 44°07' W 069°06'0 0.0
2017-Sep-21 16:59N 44°07' W 069°06'0 0.0
2017-Sep-21 16:23N 44°07' W 069°06'0 0.0
2017-Sep-21 15:58N 44°07' W 069°06'0 0.0
2017-Sep-21 15:27N 44°07' W 069°06'0 0.0
2017-Sep-21 14:45N 44°07' W 069°06'0 0.0
2017-Sep-21 14:06N 44°07' W 069°06'0 0.0
2017-Sep-21 13:56N 44°07' W 069°06'0 0.0
2017-Sep-21 13:25N 44°07' W 069°06'0 0.0
2017-Sep-21 12:57N 44°07' W 069°06'0 0.0
2017-Sep-21 12:30N 44°07' W 069°06'0 0.0
2017-Sep-21 11:59N 44°07' W 069°06'0 0.0
2017-Sep-21 11:27N 44°07' W 069°06'0 0.0
2017-Sep-21 10:36N 44°07' W 069°06'0 0.0
2017-Sep-21 10:28N 44°07' W 069°06'0 0.0
2017-Sep-21 09:55N 44°07' W 069°06'0 0.0
2017-Sep-21 09:27N 44°07' W 069°06'0 0.0
2017-Sep-21 08:58N 44°07' W 069°06'0 0.0
2017-Sep-21 08:30N 44°07' W 069°06'0 0.0
2017-Sep-21 07:58N 44°07' W 069°06'0 0.0
2017-Sep-21 07:27N 44°07' W 069°06'0 0.0
2017-Sep-21 06:40N 44°07' W 069°06'0 0.0
2017-Sep-21 06:23N 44°07' W 069°06'0 0.0
2017-Sep-21 05:59N 44°07' W 069°06'0 0.0
2017-Sep-21 05:30N 44°07' W 069°06'0 0.0
2017-Sep-21 04:51N 44°07' W 069°06'0 0.0
2017-Sep-21 04:28N 44°07' W 069°06'0 0.0
2017-Sep-21 03:58N 44°07' W 069°06'0 0.0
2017-Sep-21 03:29N 44°07' W 069°06'0 0.0
2017-Sep-21 02:53N 44°07' W 069°06'0 0.0
2017-Sep-21 02:29N 44°07' W 069°06'0 0.0
2017-Sep-21 02:00N 44°07' W 069°06'0 0.0
2017-Sep-21 01:20N 44°07' W 069°06'0 0.0
2017-Sep-21 00:30N 44°07' W 069°06'0 0.0
2017-Sep-20 23:56N 44°07' W 069°06'0 0.0
2017-Sep-20 22:53N 44°07' W 069°06'0 0.0
2017-Sep-20 21:39N 44°07' W 069°06'0 0.0
2017-Sep-20 21:27N 44°07' W 069°06'0 0.0
2017-Sep-20 20:59N 44°07' W 069°06'0 0.0
2017-Sep-20 20:27N 44°07' W 069°06'0 0.0
2017-Sep-20 19:45N 44°07' W 069°06'0 0.0
2017-Sep-20 19:27N 44°07' W 069°06'0 0.0
2017-Sep-20 18:57N 44°07' W 069°06'0 0.0
2017-Sep-20 18:30N 44°07' W 069°06'0 0.0
2017-Sep-20 17:48N 44°07' W 069°06'0 0.0
2017-Sep-20 17:30N 44°07' W 069°06'0 0.0
2017-Sep-20 16:53N 44°07' W 069°06'0 0.0
2017-Sep-20 16:26N 44°07' W 069°06'0 0.0
2017-Sep-20 15:55N 44°07' W 069°06'0 0.0
2017-Sep-20 15:28N 44°07' W 069°06'0 0.0
2017-Sep-20 14:53N 44°07' W 069°06'0 0.0
2017-Sep-20 14:00N 44°07' W 069°06'0 0.0
2017-Sep-20 12:48N 44°07' W 069°06'0 0.0
2017-Sep-20 12:26N 44°07' W 069°06'0 0.0
2017-Sep-20 11:58N 44°07' W 069°06'0 0.0
2017-Sep-20 11:28N 44°07' W 069°06'0 0.0
2017-Sep-20 10:56N 44°07' W 069°06'0 0.0
2017-Sep-20 10:25N 44°07' W 069°06'0 0.0
2017-Sep-20 10:00N 44°07' W 069°06'0 0.0
2017-Sep-20 09:26N 44°07' W 069°06'0 0.0
2017-Sep-20 08:58N 44°07' W 069°06'0 0.0
2017-Sep-20 08:28N 44°07' W 069°06'0 0.0
2017-Sep-20 08:00N 44°07' W 069°06'0 0.0
2017-Sep-20 06:42N 44°07' W 069°06'0 0.0
2017-Sep-20 05:51N 44°07' W 069°06'0 0.0
2017-Sep-20 05:26N 44°07' W 069°06'0 0.0
2017-Sep-20 04:45N 44°07' W 069°06'0 0.0
2017-Sep-20 04:30N 44°07' W 069°06'0 0.0
2017-Sep-20 03:56N 44°07' W 069°06'0 0.0
2017-Sep-20 03:29N 44°07' W 069°06'0 0.0
2017-Sep-20 03:00N 44°07' W 069°06'0 0.0
2017-Sep-20 02:28N 44°07' W 069°06'0 0.0
2017-Sep-20 01:57N 44°07' W 069°06'0 0.0
2017-Sep-20 01:30N 44°07' W 069°06'0 0.0
2017-Sep-20 00:56N 44°07' W 069°06'0 0.0
2017-Sep-20 00:21N 44°07' W 069°06'0 0.0
2017-Sep-19 23:47N 44°07' W 069°06'0 0.0
2017-Sep-19 23:30N 44°07' W 069°06'0 0.0
2017-Sep-19 22:56N 44°07' W 069°06'0 0.0
2017-Sep-19 22:28N 44°07' W 069°06'0 0.0
2017-Sep-19 21:21N 44°07' W 069°06'0 0.0
2017-Sep-19 21:00N 44°07' W 069°06'0 0.0
2017-Sep-19 20:26N 44°07' W 069°06'0 0.0
2017-Sep-19 19:55N 44°07' W 069°06'0 0.0
2017-Sep-19 19:24N 44°07' W 069°06'0 0.0
2017-Sep-19 18:59N 44°07' W 069°06'0 0.0
2017-Sep-19 18:28N 44°07' W 069°06'0 0.0
2017-Sep-19 17:59N 44°07' W 069°06'0 0.0
2017-Sep-19 17:16N 44°07' W 069°06'0 0.0
2017-Sep-19 16:57N 44°07' W 069°06'0 0.0
2017-Sep-19 16:30N 44°07' W 069°06'0 0.0
2017-Sep-19 15:56N 44°07' W 069°06'0 0.0
2017-Sep-19 15:29N 44°07' W 069°06'0 0.0
2017-Sep-19 14:58N 44°07' W 069°06'0 0.0
2017-Sep-19 14:26N 44°07' W 069°06'0 0.0
2017-Sep-19 14:00N 44°07' W 069°06'0 0.0
2017-Sep-19 13:25N 44°07' W 069°06'0 0.0
2017-Sep-19 13:00N 44°07' W 069°06'0 0.0
2017-Sep-19 12:29N 44°07' W 069°06'0 0.0
2017-Sep-19 11:58N 44°07' W 069°06'0 0.0
2017-Sep-19 11:21N 44°07' W 069°06'0 0.0
2017-Sep-19 10:54N 44°07' W 069°06'0 0.0
2017-Sep-19 10:29N 44°07' W 069°06'0 0.0
2017-Sep-19 09:44N 44°07' W 069°06'0 0.0
2017-Sep-19 09:28N 44°07' W 069°06'0 0.0
2017-Sep-19 08:59N 44°07' W 069°06'0 0.0
2017-Sep-19 08:29N 44°07' W 069°06'0 0.0
2017-Sep-19 07:59N 44°07' W 069°06'0 0.0
2017-Sep-19 07:26N 44°07' W 069°06'0 0.0
2017-Sep-19 06:59N 44°07' W 069°06'0 0.0
2017-Sep-19 06:29N 44°07' W 069°06'0 0.0
2017-Sep-19 05:59N 44°07' W 069°06'0 0.0
2017-Sep-19 05:30N 44°07' W 069°06'0 0.0
2017-Sep-19 04:59N 44°07' W 069°06'0 0.0
2017-Sep-19 04:30N 44°07' W 069°06'0 0.0
2017-Sep-19 03:42N 44°07' W 069°06'0 0.0
2017-Sep-19 03:15N 44°07' W 069°06'0 0.0
2017-Sep-19 02:57N 44°07' W 069°06'0 0.0
2017-Sep-19 02:26N 44°07' W 069°06'0 0.0
2017-Sep-19 01:57N 44°07' W 069°06'0 0.0
2017-Sep-19 01:12N 44°07' W 069°06'0 0.0
2017-Sep-19 00:59N 44°07' W 069°06'0 0.0
2017-Sep-19 00:29N 44°07' W 069°06'0 0.0
2017-Sep-18 23:54N 44°07' W 069°06'0 0.0
2017-Sep-18 23:26N 44°07' W 069°06'0 0.0
2017-Sep-18 22:59N 44°07' W 069°06'0 0.0
2017-Sep-18 22:14N 44°07' W 069°06'0 0.0
2017-Sep-18 21:55N 44°07' W 069°06'0 0.0
2017-Sep-18 21:29N 44°07' W 069°06'0 0.0
2017-Sep-18 20:52N 44°07' W 069°06'0 0.0
2017-Sep-18 20:27N 44°07' W 069°06'0 0.0
2017-Sep-18 19:56N 44°07' W 069°06'0 0.0
2017-Sep-18 19:30N 44°07' W 069°06'0 0.0
2017-Sep-18 18:55N 44°07' W 069°06'0 0.0
2017-Sep-18 18:18N 44°07' W 069°06'0 0.0
2017-Sep-18 17:57N 44°07' W 069°06'0 0.0
2017-Sep-18 17:27N 44°07' W 069°06'0 0.0
2017-Sep-18 17:00N 44°07' W 069°06'0 0.0
2017-Sep-18 16:27N 44°07' W 069°06'0 0.0
2017-Sep-18 15:59N 44°07' W 069°06'0 0.0
2017-Sep-18 15:27N 44°07' W 069°06'0 0.0
2017-Sep-18 15:00N 44°07' W 069°06'0 0.0
2017-Sep-18 14:27N 44°07' W 069°06'0 0.0
2017-Sep-18 13:58N 44°07' W 069°06'0 0.0
2017-Sep-18 13:16N 44°07' W 069°06'0 0.0
2017-Sep-18 12:59N 44°07' W 069°06'0 0.0
2017-Sep-18 12:27N 44°07' W 069°06'0 0.0
2017-Sep-18 11:51N 44°07' W 069°06'0 0.0
2017-Sep-18 11:29N 44°07' W 069°06'1 1.1
2017-Sep-18 10:48N 44°06' W 069°05'4 8.7
2017-Sep-18 10:20N 44°04' W 069°01'310.0
2017-Sep-18 10:00N 44°01' W 069°00'610.0
2017-Sep-18 09:27N 43°55' W 068°59'3 0.1
2017-Sep-16 21:54N 43°58' W 068°59'4 8.8
2017-Sep-16 21:28N 44°02' W 069°00'4 9.5
2017-Sep-16 21:00N 44°06' W 069°02'3 5.0
2017-Sep-16 20:26N 44°07' W 069°06'0 0.0
2017-Sep-16 19:49N 44°07' W 069°06'0 0.0
2017-Sep-16 19:30N 44°07' W 069°06'0 0.0
2017-Sep-16 18:58N 44°07' W 069°06'0 0.0
2017-Sep-16 18:13N 44°07' W 069°06'0 0.0
2017-Sep-16 18:00N 44°07' W 069°06'0 0.0
2017-Sep-16 17:31N 44°07' W 069°06'0 0.0
2017-Sep-16 16:53N 44°07' W 069°06'0 0.0
2017-Sep-16 16:25N 44°07' W 069°06'0 0.0
2017-Sep-16 16:00N 44°07' W 069°06'0 0.0
2017-Sep-16 15:17N 44°07' W 069°06'0 0.0
2017-Sep-16 14:59N 44°07' W 069°06'0 0.0
2017-Sep-16 14:30N 44°07' W 069°06'0 0.0
2017-Sep-16 13:58N 44°07' W 069°06'0 0.0
2017-Sep-16 13:30N 44°07' W 069°06'0 0.0
2017-Sep-16 12:57N 44°07' W 069°06'0 0.0
2017-Sep-16 12:20N 44°07' W 069°06'0 0.0
2017-Sep-16 11:57N 44°07' W 069°06'0 0.0
2017-Sep-16 11:28N 44°07' W 069°06'0 0.0
2017-Sep-16 07:31N 44°07' W 069°06'0 0.0
2017-Sep-16 07:27N 44°07' W 069°06'0 0.0
2017-Sep-16 06:50N 44°07' W 069°06'0 0.0
2017-Sep-16 06:30N 44°07' W 069°06'0 0.0
2017-Sep-16 05:59N 44°07' W 069°06'0 0.0
2017-Sep-16 05:24N 44°07' W 069°06'0 0.0
2017-Sep-16 04:58N 44°07' W 069°06'0 0.0
2017-Sep-16 04:27N 44°07' W 069°06'0 0.0
2017-Sep-16 03:50N 44°07' W 069°06'0 0.0
2017-Sep-16 03:11N 44°07' W 069°06'0 0.0
2017-Sep-16 02:44N 44°07' W 069°06'0 0.0
2017-Sep-16 02:28N 44°07' W 069°06'0 0.0
2017-Sep-16 02:00N 44°07' W 069°06'0 0.0
2017-Sep-16 01:30N 44°07' W 069°06'0 0.0
2017-Sep-15 21:42N 44°07' W 069°06'0 0.0
2017-Sep-15 21:26N 44°07' W 069°06'0 0.0
2017-Sep-15 20:59N 44°07' W 069°06'0 0.0
2017-Sep-15 18:31N 44°07' W 069°06'0 0.0
2017-Sep-15 18:29N 44°07' W 069°06'0 0.0
2017-Sep-15 17:58N 44°07' W 069°06'0 0.0
2017-Sep-15 17:27N 44°07' W 069°06'0 0.0
2017-Sep-15 16:55N 44°07' W 069°06'0 0.0
2017-Sep-15 16:21N 44°07' W 069°06'0 0.0
2017-Sep-15 16:00N 44°07' W 069°06'0 0.0
2017-Sep-15 15:30N 44°07' W 069°06'0 0.0
2017-Sep-15 14:29N 44°07' W 069°06'0 0.0
2017-Sep-15 13:57N 44°07' W 069°06'0 0.0
2017-Sep-15 13:23N 44°07' W 069°06'0 0.0
2017-Sep-15 12:50N 44°07' W 069°06'0 0.0
2017-Sep-15 12:24N 44°07' W 069°06'0 0.0
2017-Sep-15 11:59N 44°07' W 069°06'0 0.0
2017-Sep-15 10:38N 44°07' W 069°06'0 0.0
2017-Sep-15 10:28N 44°07' W 069°06'0 0.0
2017-Sep-15 08:51N 44°07' W 069°06'0 0.0
2017-Sep-15 08:12N 44°07' W 069°06'0 0.0
2017-Sep-15 07:55N 44°07' W 069°06'0 0.0
2017-Sep-15 07:27N 44°07' W 069°06'0 0.0
2017-Sep-15 06:58N 44°07' W 069°06'0 0.0
2017-Sep-15 06:26N 44°07' W 069°06'0 0.0
2017-Sep-15 06:00N 44°07' W 069°06'0 0.0
2017-Sep-15 05:20N 44°07' W 069°06'0 0.0
2017-Sep-15 04:56N 44°07' W 069°06'0 0.0
2017-Sep-15 04:26N 44°07' W 069°06'0 0.0
2017-Sep-15 03:59N 44°07' W 069°06'0 0.0
2017-Sep-15 03:28N 44°07' W 069°06'0 0.0
2017-Sep-15 03:01N 44°07' W 069°06'0 0.0
2017-Sep-15 02:26N 44°07' W 069°06'0 0.0
2017-Sep-15 01:59N 44°07' W 069°06'0 0.0
2017-Sep-15 01:26N 44°07' W 069°06'0 0.0
2017-Sep-15 00:59N 44°07' W 069°06'0 0.0
2017-Sep-15 00:30N 44°07' W 069°06'0 0.0
2017-Sep-14 23:56N 44°07' W 069°06'0 0.0
2017-Sep-14 23:20N 44°07' W 069°06'0 0.0
2017-Sep-14 22:57N 44°07' W 069°06'0 0.0
2017-Sep-14 22:28N 44°07' W 069°06'0 0.0
2017-Sep-14 21:59N 44°07' W 069°06'0 0.0
2017-Sep-14 21:23N 44°07' W 069°06'0 0.0
2017-Sep-14 20:59N 44°07' W 069°06'0 0.0
2017-Sep-14 20:27N 44°07' W 069°06'0 0.0
2017-Sep-14 19:59N 44°07' W 069°06'0 0.0
2017-Sep-14 19:30N 44°07' W 069°06'0 0.0
2017-Sep-14 19:00N 44°07' W 069°06'0 0.0
2017-Sep-14 18:30N 44°07' W 069°06'0 0.0
2017-Sep-14 18:00N 44°07' W 069°06'0 0.0
2017-Sep-14 17:31N 44°07' W 069°06'0 0.0
2017-Sep-14 16:59N 44°07' W 069°06'0 0.0
2017-Sep-14 15:58N 44°07' W 069°06'0 0.0
2017-Sep-14 15:24N 44°07' W 069°06'0 0.0
2017-Sep-14 14:41N 44°07' W 069°06'0 0.0
2017-Sep-14 14:25N 44°07' W 069°06'0 0.0
2017-Sep-14 13:45N 44°07' W 069°06'0 0.0
2017-Sep-14 13:28N 44°07' W 069°06'0 0.0
2017-Sep-14 12:51N 44°07' W 069°06'0 0.0
2017-Sep-14 12:26N 44°07' W 069°06'0 0.0
2017-Sep-14 11:56N 44°07' W 069°06'0 0.0
2017-Sep-14 11:29N 44°07' W 069°06'0 0.0
2017-Sep-14 10:51N 44°07' W 069°06'0 0.0
2017-Sep-14 10:26N 44°07' W 069°06'0 0.0
2017-Sep-14 09:54N 44°07' W 069°06'0 0.0
2017-Sep-14 09:27N 44°07' W 069°06'0 0.0
2017-Sep-14 08:57N 44°07' W 069°06'0 0.0
2017-Sep-14 08:30N 44°07' W 069°06'0 0.0
2017-Sep-14 07:40N 44°07' W 069°06'0 0.0
2017-Sep-14 07:25N 44°07' W 069°06'0 0.0
2017-Sep-14 06:59N 44°07' W 069°06'0 0.0
2017-Sep-14 06:28N 44°07' W 069°06'0 0.0
2017-Sep-14 05:51N 44°07' W 069°06'0 0.0
2017-Sep-14 05:27N 44°07' W 069°06'0 0.0
2017-Sep-14 05:00N 44°07' W 069°06'0 0.0
2017-Sep-14 04:27N 44°07' W 069°06'0 0.0
2017-Sep-14 03:57N 44°07' W 069°06'0 0.0
2017-Sep-14 03:24N 44°07' W 069°06'0 0.0
2017-Sep-14 03:00N 44°07' W 069°06'0 0.0
2017-Sep-14 02:17N 44°07' W 069°06'  

Dump ship's entire track history